Golden City, Missouri
Current Conditions -  °F | °C
As of 8:53 PM on Friday 21 Nov 2014 (Local Time) from KJLN Reporting Station
Overcast Overcast  
Wind Chill: 51°   Ceiling: 1200
Heat Index: 51°   Visibility: 9mi
Dew Point: 46°   Wind: 8mph
Humidity: 83%   Direction: 150°SSE
Pressure: 30.12"   Gusts: NA
Location:  37.39°N, 94.09°W
Report Text: KJLN 220253Z 15007KT 9SM OVC012 11/08 A3012 RMK AO2 SLP200 T01060078 53004
Loading
Personal Weather Stations






























Interactive Weather Map New forecast layout! Learn more

10-Day Weather Forecast

Advertisements
Track Severe Weather on mobile